sensor_id;sensor_type;location;lat;lon;timestamp;P1;durP1;ratioP1;P2;durP2;ratioP2
78416;SDS011;67715;46.170;6.140;2023-03-14T00:05:06;1.40;;;0.30;;
78416;SDS011;67715;46.170;6.140;2023-03-14T00:07:40;1.17;;;0.20;;
78416;SDS011;67715;46.170;6.140;2023-03-14T00:53:10;0.60;;;0.40;;
78416;SDS011;67715;46.170;6.140;2023-03-14T00:55:53;0.35;;;0.20;;
78416;SDS011;67715;46.170;6.140;2023-03-14T00:58:42;0.38;;;0.10;;
78416;SDS011;67715;46.170;6.140;2023-03-14T01:01:12;1.08;;;0.50;;
78416;SDS011;67715;46.170;6.140;2023-03-14T01:03:45;1.20;;;0.40;;
78416;SDS011;67715;46.170;6.140;2023-03-14T01:06:34;0.47;;;0.30;;
78416;SDS011;67715;46.170;6.140;2023-03-14T01:15:17;0.08;;;0.05;;
78416;SDS011;67715;46.170;6.140;2023-03-14T01:18:44;0.28;;;0.25;;
78416;SDS011;67715;46.170;6.140;2023-03-14T01:50:06;0.25;;;0.20;;
78416;SDS011;67715;46.170;6.140;2023-03-14T01:52:46;1.55;;;0.20;;
78416;SDS011;67715;46.170;6.140;2023-03-14T01:55:51;1.05;;;0.20;;
78416;SDS011;67715;46.170;6.140;2023-03-14T01:58:54;0.20;;;0.20;;
78416;SDS011;67715;46.170;6.140;2023-03-14T02:01:23;1.77;;;0.20;;
78416;SDS011;67715;46.170;6.140;2023-03-14T02:04:20;0.13;;;0.13;;
78416;SDS011;67715;46.170;6.140;2023-03-14T02:07:00;0.20;;;0.20;;
78416;SDS011;67715;46.170;6.140;2023-03-14T02:10:08;0.15;;;0.10;;
78416;SDS011;67715;46.170;6.140;2023-03-14T02:12:53;0.10;;;0.10;;
78416;SDS011;67715;46.170;6.140;2023-03-14T02:21:34;0.32;;;0.20;;
78416;SDS011;67715;46.170;6.140;2023-03-14T02:24:05;0.20;;;0.17;;
78416;SDS011;67715;46.170;6.140;2023-03-14T02:27:29;0.20;;;0.13;;
78416;SDS011;67715;46.170;6.140;2023-03-14T02:29:58;0.40;;;0.20;;
78416;SDS011;67715;46.170;6.140;2023-03-14T02:32:49;0.30;;;0.25;;
78416;SDS011;67715;46.170;6.140;2023-03-14T02:42:28;1.20;;;0.30;;
78416;SDS011;67715;46.170;6.140;2023-03-14T03:00:26;0.20;;;0.20;;
78416;SDS011;67715;46.170;6.140;2023-03-14T05:36:31;0.70;;;0.20;;
78416;SDS011;67715;46.170;6.140;2023-03-14T06:05:19;0.80;;;0.20;;
78416;SDS011;67715;46.170;6.140;2023-03-14T06:23:03;0.98;;;0.20;;
78416;SDS011;67715;46.170;6.140;2023-03-14T06:28:51;2.38;;;0.30;;
78416;SDS011;67715;46.170;6.140;2023-03-14T06:31:30;1.02;;;0.50;;
78416;SDS011;67715;46.170;6.140;2023-03-14T06:34:14;0.10;;;0.10;;
78416;SDS011;67715;46.170;6.140;2023-03-14T06:39:58;1.77;;;0.43;;
78416;SDS011;67715;46.170;6.140;2023-03-14T06:42:44;1.48;;;0.40;;
78416;SDS011;67715;46.170;6.140;2023-03-14T06:49:21;0.95;;;0.47;;
78416;SDS011;67715;46.170;6.140;2023-03-14T06:51:55;1.50;;;0.25;;
78416;SDS011;67715;46.170;6.140;2023-03-14T06:54:21;1.42;;;0.20;;
78416;SDS011;67715;46.170;6.140;2023-03-14T07:06:28;0.38;;;0.20;;
78416;SDS011;67715;46.170;6.140;2023-03-14T07:12:14;0.40;;;0.25;;
78416;SDS011;67715;46.170;6.140;2023-03-14T07:14:50;1.08;;;0.30;;
78416;SDS011;67715;46.170;6.140;2023-03-14T07:17:34;0.38;;;0.20;;
78416;SDS011;67715;46.170;6.140;2023-03-14T07:20:22;0.40;;;0.28;;
78416;SDS011;67715;46.170;6.140;2023-03-14T07:23:03;2.83;;;0.30;;
78416;SDS011;67715;46.170;6.140;2023-03-14T07:31:18;0.95;;;0.47;;
78416;SDS011;67715;46.170;6.140;2023-03-14T07:43:24;0.03;;;0.00;;
78416;SDS011;67715;46.170;6.140;2023-03-14T07:52:06;0.05;;;0.05;;
78416;SDS011;67715;46.170;6.140;2023-03-14T07:54:40;0.80;;;0.35;;
78416;SDS011;67715;46.170;6.140;2023-03-14T08:01:06;0.73;;;0.17;;
78416;SDS011;67715;46.170;6.140;2023-03-14T08:03:50;0.47;;;0.17;;
78416;SDS011;67715;46.170;6.140;2023-03-14T08:06:36;0.82;;;0.20;;
78416;SDS011;67715;46.170;6.140;2023-03-14T08:12:58;0.60;;;0.20;;
78416;SDS011;67715;46.170;6.140;2023-03-14T08:19:37;0.75;;;0.03;;
78416;SDS011;67715;46.170;6.140;2023-03-14T08:29:23;0.30;;;0.22;;
78416;SDS011;67715;46.170;6.140;2023-03-14T08:35:44;0.40;;;0.17;;
78416;SDS011;67715;46.170;6.140;2023-03-14T08:38:10;2.05;;;0.60;;
78416;SDS011;67715;46.170;6.140;2023-03-14T08:48:01;0.43;;;0.20;;
78416;SDS011;67715;46.170;6.140;2023-03-14T08:57:15;0.57;;;0.20;;
78416;SDS011;67715;46.170;6.140;2023-03-14T08:59:44;1.13;;;0.30;;
78416;SDS011;67715;46.170;6.140;2023-03-14T09:27:07;0.40;;;0.20;;
78416;SDS011;67715;46.170;6.140;2023-03-14T10:02:25;1.25;;;0.40;;
78416;SDS011;67715;46.170;6.140;2023-03-14T10:05:31;1.27;;;0.60;;
78416;SDS011;67715;46.170;6.140;2023-03-14T10:07:56;1.88;;;0.57;;
78416;SDS011;67715;46.170;6.140;2023-03-14T10:10:27;0.17;;;0.10;;
78416;SDS011;67715;46.170;6.140;2023-03-14T11:04:01;0.63;;;0.30;;
78416;SDS011;67715;46.170;6.140;2023-03-14T11:10:35;0.45;;;0.22;;
78416;SDS011;67715;46.170;6.140;2023-03-14T11:16:04;0.55;;;0.40;;
78416;SDS011;67715;46.170;6.140;2023-03-14T11:24:55;1.80;;;0.40;;
78416;SDS011;67715;46.170;6.140;2023-03-14T12:39:13;0.63;;;0.43;;
78416;SDS011;67715;46.170;6.140;2023-03-14T12:52:01;0.75;;;0.20;;
78416;SDS011;67715;46.170;6.140;2023-03-14T12:54:57;1.25;;;0.52;;
78416;SDS011;67715;46.170;6.140;2023-03-14T13:37:38;0.98;;;0.40;;
78416;SDS011;67715;46.170;6.140;2023-03-14T13:47:05;1.02;;;0.50;;
78416;SDS011;67715;46.170;6.140;2023-03-14T13:56:40;0.60;;;0.30;;
78416;SDS011;67715;46.170;6.140;2023-03-14T14:07:06;3.22;;;0.93;;
78416;SDS011;67715;46.170;6.140;2023-03-14T14:09:52;0.68;;;0.40;;
78416;SDS011;67715;46.170;6.140;2023-03-14T14:18:24;0.73;;;0.40;;
78416;SDS011;67715;46.170;6.140;2023-03-14T14:23:59;1.92;;;0.55;;
78416;SDS011;67715;46.170;6.140;2023-03-14T14:26:25;0.30;;;0.30;;
78416;SDS011;67715;46.170;6.140;2023-03-14T14:32:20;1.20;;;0.45;;
78416;SDS011;67715;46.170;6.140;2023-03-14T14:41:41;2.03;;;0.80;;
78416;SDS011;67715;46.170;6.140;2023-03-14T14:54:57;2.08;;;0.60;;
78416;SDS011;67715;46.170;6.140;2023-03-14T15:04:01;3.58;;;0.30;;
78416;SDS011;67715;46.170;6.140;2023-03-14T15:12:46;1.25;;;0.47;;
78416;SDS011;67715;46.170;6.140;2023-03-14T15:15:17;2.85;;;0.60;;
78416;SDS011;67715;46.170;6.140;2023-03-14T15:20:45;2.75;;;0.50;;
78416;SDS011;67715;46.170;6.140;2023-03-14T15:23:18;0.90;;;0.57;;
78416;SDS011;67715;46.170;6.140;2023-03-14T15:25:54;3.72;;;0.70;;
78416;SDS011;67715;46.170;6.140;2023-03-14T15:28:38;1.00;;;0.50;;
78416;SDS011;67715;46.170;6.140;2023-03-14T15:31:10;0.85;;;0.40;;
78416;SDS011;67715;46.170;6.140;2023-03-14T15:33:39;4.68;;;1.45;;
78416;SDS011;67715;46.170;6.140;2023-03-14T15:38:48;6.68;;;1.00;;
78416;SDS011;67715;46.170;6.140;2023-03-14T15:41:13;1.65;;;0.40;;
78416;SDS011;67715;46.170;6.140;2023-03-14T15:43:40;3.03;;;0.85;;
78416;SDS011;67715;46.170;6.140;2023-03-14T15:46:08;3.88;;;1.05;;
78416;SDS011;67715;46.170;6.140;2023-03-14T15:48:34;2.45;;;0.75;;
78416;SDS011;67715;46.170;6.140;2023-03-14T15:50:59;4.10;;;0.90;;
78416;SDS011;67715;46.170;6.140;2023-03-14T15:53:25;1.10;;;0.52;;
78416;SDS011;67715;46.170;6.140;2023-03-14T15:55:50;0.80;;;0.30;;
78416;SDS011;67715;46.170;6.140;2023-03-14T15:58:17;4.72;;;0.80;;
78416;SDS011;67715;46.170;6.140;2023-03-14T16:00:50;2.45;;;0.70;;
78416;SDS011;67715;46.170;6.140;2023-03-14T16:03:16;3.08;;;0.75;;
78416;SDS011;67715;46.170;6.140;2023-03-14T16:05:42;4.47;;;0.50;;
78416;SDS011;67715;46.170;6.140;2023-03-14T16:08:07;2.20;;;0.55;;
78416;SDS011;67715;46.170;6.140;2023-03-14T16:10:44;2.83;;;0.93;;
78416;SDS011;67715;46.170;6.140;2023-03-14T16:13:10;3.35;;;0.70;;
78416;SDS011;67715;46.170;6.140;2023-03-14T16:15:35;2.05;;;0.65;;
78416;SDS011;67715;46.170;6.140;2023-03-14T16:18:03;4.60;;;1.00;;
78416;SDS011;67715;46.170;6.140;2023-03-14T16:20:29;0.80;;;0.50;;
78416;SDS011;67715;46.170;6.140;2023-03-14T16:22:54;2.92;;;0.63;;
78416;SDS011;67715;46.170;6.140;2023-03-14T16:25:22;3.50;;;0.65;;
78416;SDS011;67715;46.170;6.140;2023-03-14T16:27:48;1.92;;;0.68;;
78416;SDS011;67715;46.170;6.140;2023-03-14T16:30:13;2.63;;;0.57;;
78416;SDS011;67715;46.170;6.140;2023-03-14T16:32:39;5.03;;;1.15;;
78416;SDS011;67715;46.170;6.140;2023-03-14T16:35:05;4.55;;;0.70;;
78416;SDS011;67715;46.170;6.140;2023-03-14T16:37:31;3.20;;;0.70;;
78416;SDS011;67715;46.170;6.140;2023-03-14T16:39:56;4.47;;;0.70;;
78416;SDS011;67715;46.170;6.140;2023-03-14T16:42:22;2.15;;;0.40;;
78416;SDS011;67715;46.170;6.140;2023-03-14T16:44:48;2.53;;;1.02;;
78416;SDS011;67715;46.170;6.140;2023-03-14T16:47:13;3.22;;;0.80;;
78416;SDS011;67715;46.170;6.140;2023-03-14T16:49:38;4.37;;;0.73;;
78416;SDS011;67715;46.170;6.140;2023-03-14T16:52:04;1.88;;;0.63;;
78416;SDS011;67715;46.170;6.140;2023-03-14T16:54:31;7.18;;;1.08;;
78416;SDS011;67715;46.170;6.140;2023-03-14T16:56:57;5.28;;;0.80;;
78416;SDS011;67715;46.170;6.140;2023-03-14T16:59:22;2.30;;;0.80;;
78416;SDS011;67715;46.170;6.140;2023-03-14T17:01:49;3.60;;;0.80;;
78416;SDS011;67715;46.170;6.140;2023-03-14T17:04:15;6.07;;;1.92;;
78416;SDS011;67715;46.170;6.140;2023-03-14T17:06:40;2.70;;;0.83;;
78416;SDS011;67715;46.170;6.140;2023-03-14T17:09:06;2.83;;;0.60;;
78416;SDS011;67715;46.170;6.140;2023-03-14T17:11:31;2.78;;;0.90;;
78416;SDS011;67715;46.170;6.140;2023-03-14T17:14:01;2.88;;;0.82;;
78416;SDS011;67715;46.170;6.140;2023-03-14T17:16:36;2.00;;;0.80;;
78416;SDS011;67715;46.170;6.140;2023-03-14T17:19:04;3.20;;;0.93;;
78416;SDS011;67715;46.170;6.140;2023-03-14T17:21:29;3.03;;;0.97;;
78416;SDS011;67715;46.170;6.140;2023-03-14T17:23:58;1.98;;;0.60;;
78416;SDS011;67715;46.170;6.140;2023-03-14T17:26:33;2.63;;;0.85;;
78416;SDS011;67715;46.170;6.140;2023-03-14T17:28:58;3.22;;;1.02;;
78416;SDS011;67715;46.170;6.140;2023-03-14T17:31:23;3.92;;;0.90;;
78416;SDS011;67715;46.170;6.140;2023-03-14T17:33:49;3.50;;;0.60;;
78416;SDS011;67715;46.170;6.140;2023-03-14T17:36:16;2.65;;;0.93;;
78416;SDS011;67715;46.170;6.140;2023-03-14T17:48:54;0.90;;;0.40;;
78416;SDS011;67715;46.170;6.140;2023-03-14T17:55:43;2.92;;;0.90;;
78416;SDS011;67715;46.170;6.140;2023-03-14T17:58:32;2.17;;;1.25;;
78416;SDS011;67715;46.170;6.140;2023-03-14T18:01:20;2.80;;;0.90;;
78416;SDS011;67715;46.170;6.140;2023-03-14T18:06:52;2.00;;;0.90;;
78416;SDS011;67715;46.170;6.140;2023-03-14T18:12:57;1.30;;;0.57;;
78416;SDS011;67715;46.170;6.140;2023-03-14T18:15:22;4.35;;;0.90;;
78416;SDS011;67715;46.170;6.140;2023-03-14T18:17:50;1.77;;;0.80;;
78416;SDS011;67715;46.170;6.140;2023-03-14T18:20:21;4.38;;;0.82;;
78416;SDS011;67715;46.170;6.140;2023-03-14T18:23:02;3.63;;;1.38;;
78416;SDS011;67715;46.170;6.140;2023-03-14T18:25:31;4.20;;;1.00;;
78416;SDS011;67715;46.170;6.140;2023-03-14T18:27:59;4.95;;;1.20;;
78416;SDS011;67715;46.170;6.140;2023-03-14T18:30:25;2.83;;;0.90;;
78416;SDS011;67715;46.170;6.140;2023-03-14T18:32:50;2.80;;;0.73;;
78416;SDS011;67715;46.170;6.140;2023-03-14T18:35:18;2.65;;;0.90;;
78416;SDS011;67715;46.170;6.140;2023-03-14T18:37:44;2.28;;;0.73;;
78416;SDS011;67715;46.170;6.140;2023-03-14T18:40:10;3.13;;;1.13;;
78416;SDS011;67715;46.170;6.140;2023-03-14T18:42:40;4.28;;;1.15;;
78416;SDS011;67715;46.170;6.140;2023-03-14T18:45:13;3.95;;;1.00;;
78416;SDS011;67715;46.170;6.140;2023-03-14T18:47:41;1.10;;;0.68;;
78416;SDS011;67715;46.170;6.140;2023-03-14T18:50:07;0.82;;;0.60;;
78416;SDS011;67715;46.170;6.140;2023-03-14T18:52:33;2.45;;;1.15;;
78416;SDS011;67715;46.170;6.140;2023-03-14T18:54:59;5.10;;;1.60;;
78416;SDS011;67715;46.170;6.140;2023-03-14T18:57:24;6.93;;;1.35;;
78416;SDS011;67715;46.170;6.140;2023-03-14T18:59:53;2.85;;;1.33;;
78416;SDS011;67715;46.170;6.140;2023-03-14T19:02:23;3.40;;;1.27;;
78416;SDS011;67715;46.170;6.140;2023-03-14T19:04:48;1.77;;;0.90;;
78416;SDS011;67715;46.170;6.140;2023-03-14T19:07:16;5.78;;;1.38;;
78416;SDS011;67715;46.170;6.140;2023-03-14T19:09:42;5.95;;;1.40;;
78416;SDS011;67715;46.170;6.140;2023-03-14T19:12:10;2.35;;;1.15;;
78416;SDS011;67715;46.170;6.140;2023-03-14T19:14:35;3.20;;;1.60;;
78416;SDS011;67715;46.170;6.140;2023-03-14T19:17:03;4.53;;;1.42;;
78416;SDS011;67715;46.170;6.140;2023-03-14T19:19:31;6.80;;;1.90;;
78416;SDS011;67715;46.170;6.140;2023-03-14T19:21:56;3.38;;;1.70;;
78416;SDS011;67715;46.170;6.140;2023-03-14T19:24:21;2.92;;;1.80;;
78416;SDS011;67715;46.170;6.140;2023-03-14T19:26:47;8.45;;;3.70;;
78416;SDS011;67715;46.170;6.140;2023-03-14T19:29:13;4.03;;;1.52;;
78416;SDS011;67715;46.170;6.140;2023-03-14T19:31:40;2.63;;;1.75;;
78416;SDS011;67715;46.170;6.140;2023-03-14T19:34:11;3.70;;;1.23;;
78416;SDS011;67715;46.170;6.140;2023-03-14T19:36:36;7.88;;;1.33;;
78416;SDS011;67715;46.170;6.140;2023-03-14T19:39:03;3.92;;;1.30;;
78416;SDS011;67715;46.170;6.140;2023-03-14T19:41:39;6.55;;;1.48;;
78416;SDS011;67715;46.170;6.140;2023-03-14T19:44:06;3.00;;;0.90;;
78416;SDS011;67715;46.170;6.140;2023-03-14T19:46:39;3.53;;;1.10;;
78416;SDS011;67715;46.170;6.140;2023-03-14T19:49:05;2.25;;;0.90;;
78416;SDS011;67715;46.170;6.140;2023-03-14T19:51:30;3.83;;;0.90;;
78416;SDS011;67715;46.170;6.140;2023-03-14T19:53:59;5.60;;;1.20;;
78416;SDS011;67715;46.170;6.140;2023-03-14T19:56:28;5.35;;;1.20;;
78416;SDS011;67715;46.170;6.140;2023-03-14T19:58:54;4.55;;;1.38;;
78416;SDS011;67715;46.170;6.140;2023-03-14T20:01:20;2.40;;;0.95;;
78416;SDS011;67715;46.170;6.140;2023-03-14T20:03:45;3.60;;;1.27;;
78416;SDS011;67715;46.170;6.140;2023-03-14T20:06:11;2.07;;;1.13;;
78416;SDS011;67715;46.170;6.140;2023-03-14T20:08:37;4.93;;;0.75;;
78416;SDS011;67715;46.170;6.140;2023-03-14T20:11:03;4.50;;;0.73;;
78416;SDS011;67715;46.170;6.140;2023-03-14T20:13:29;2.10;;;0.73;;
78416;SDS011;67715;46.170;6.140;2023-03-14T20:15:54;5.00;;;1.00;;
78416;SDS011;67715;46.170;6.140;2023-03-14T20:18:20;2.47;;;0.97;;
78416;SDS011;67715;46.170;6.140;2023-03-14T20:20:47;5.07;;;1.40;;
78416;SDS011;67715;46.170;6.140;2023-03-14T20:23:12;4.72;;;1.33;;
78416;SDS011;67715;46.170;6.140;2023-03-14T20:25:39;4.60;;;1.30;;
78416;SDS011;67715;46.170;6.140;2023-03-14T20:28:05;4.13;;;1.02;;
78416;SDS011;67715;46.170;6.140;2023-03-14T20:30:30;3.22;;;1.27;;
78416;SDS011;67715;46.170;6.140;2023-03-14T20:32:56;5.25;;;0.90;;
78416;SDS011;67715;46.170;6.140;2023-03-14T20:35:21;4.30;;;1.53;;
78416;SDS011;67715;46.170;6.140;2023-03-14T20:37:53;5.07;;;1.67;;
78416;SDS011;67715;46.170;6.140;2023-03-14T20:40:20;4.18;;;1.30;;
78416;SDS011;67715;46.170;6.140;2023-03-14T20:49:39;4.55;;;1.20;;
78416;SDS011;67715;46.170;6.140;2023-03-14T20:52:27;6.38;;;1.25;;
78416;SDS011;67715;46.170;6.140;2023-03-14T20:54:53;3.58;;;1.30;;
78416;SDS011;67715;46.170;6.140;2023-03-14T20:57:18;3.97;;;1.00;;
78416;SDS011;67715;46.170;6.140;2023-03-14T20:59:43;2.80;;;1.10;;
78416;SDS011;67715;46.170;6.140;2023-03-14T21:02:09;7.28;;;1.67;;
78416;SDS011;67715;46.170;6.140;2023-03-14T21:04:35;3.67;;;1.30;;
78416;SDS011;67715;46.170;6.140;2023-03-14T21:07:00;3.63;;;1.40;;
78416;SDS011;67715;46.170;6.140;2023-03-14T21:09:26;3.93;;;1.43;;
78416;SDS011;67715;46.170;6.140;2023-03-14T21:11:51;3.72;;;1.02;;
78416;SDS011;67715;46.170;6.140;2023-03-14T21:14:17;5.28;;;1.40;;
78416;SDS011;67715;46.170;6.140;2023-03-14T21:16:45;3.25;;;1.23;;
78416;SDS011;67715;46.170;6.140;2023-03-14T21:19:10;2.95;;;1.52;;
78416;SDS011;67715;46.170;6.140;2023-03-14T21:21:36;2.75;;;1.38;;
78416;SDS011;67715;46.170;6.140;2023-03-14T21:24:03;3.70;;;1.23;;
78416;SDS011;67715;46.170;6.140;2023-03-14T21:26:29;6.78;;;1.90;;
78416;SDS011;67715;46.170;6.140;2023-03-14T21:28:55;1.92;;;1.30;;
78416;SDS011;67715;46.170;6.140;2023-03-14T21:31:21;5.07;;;1.60;;
78416;SDS011;67715;46.170;6.140;2023-03-14T21:33:46;2.90;;;1.50;;
78416;SDS011;67715;46.170;6.140;2023-03-14T21:36:13;3.92;;;1.60;;
78416;SDS011;67715;46.170;6.140;2023-03-14T21:38:38;6.78;;;1.35;;
78416;SDS011;67715;46.170;6.140;2023-03-14T21:41:03;5.32;;;1.65;;
78416;SDS011;67715;46.170;6.140;2023-03-14T21:43:31;7.00;;;1.20;;
78416;SDS011;67715;46.170;6.140;2023-03-14T21:45:57;2.65;;;1.25;;
78416;SDS011;67715;46.170;6.140;2023-03-14T21:48:23;3.15;;;1.45;;
78416;SDS011;67715;46.170;6.140;2023-03-14T21:50:48;3.67;;;1.73;;
78416;SDS011;67715;46.170;6.140;2023-03-14T21:53:13;4.37;;;1.43;;
78416;SDS011;67715;46.170;6.140;2023-03-14T21:55:40;6.93;;;1.52;;
78416;SDS011;67715;46.170;6.140;2023-03-14T21:58:05;5.10;;;1.75;;
78416;SDS011;67715;46.170;6.140;2023-03-14T22:00:31;6.15;;;1.48;;
78416;SDS011;67715;46.170;6.140;2023-03-14T22:02:56;3.28;;;1.25;;
78416;SDS011;67715;46.170;6.140;2023-03-14T22:05:22;2.45;;;0.90;;
78416;SDS011;67715;46.170;6.140;2023-03-14T22:07:47;3.10;;;1.38;;
78416;SDS011;67715;46.170;6.140;2023-03-14T22:10:13;5.20;;;1.07;;
78416;SDS011;67715;46.170;6.140;2023-03-14T22:12:39;2.78;;;0.95;;
78416;SDS011;67715;46.170;6.140;2023-03-14T22:15:05;4.63;;;1.10;;
78416;SDS011;67715;46.170;6.140;2023-03-14T22:17:31;5.75;;;1.10;;
78416;SDS011;67715;46.170;6.140;2023-03-14T22:19:57;4.13;;;0.82;;
78416;SDS011;67715;46.170;6.140;2023-03-14T22:22:25;3.75;;;0.98;;
78416;SDS011;67715;46.170;6.140;2023-03-14T22:24:51;3.70;;;1.20;;
78416;SDS011;67715;46.170;6.140;2023-03-14T22:27:22;7.05;;;0.90;;
78416;SDS011;67715;46.170;6.140;2023-03-14T22:29:53;2.05;;;0.77;;
78416;SDS011;67715;46.170;6.140;2023-03-14T22:32:19;3.83;;;0.90;;
78416;SDS011;67715;46.170;6.140;2023-03-14T22:34:44;5.47;;;0.85;;
78416;SDS011;67715;46.170;6.140;2023-03-14T22:37:10;4.03;;;0.95;;
78416;SDS011;67715;46.170;6.140;2023-03-14T22:39:37;3.10;;;0.85;;
78416;SDS011;67715;46.170;6.140;2023-03-14T22:42:02;4.40;;;0.87;;
78416;SDS011;67715;46.170;6.140;2023-03-14T22:44:28;5.10;;;0.85;;
78416;SDS011;67715;46.170;6.140;2023-03-14T22:46:56;4.97;;;1.15;;
78416;SDS011;67715;46.170;6.140;2023-03-14T22:49:25;4.93;;;0.98;;
78416;SDS011;67715;46.170;6.140;2023-03-14T22:51:51;3.08;;;0.95;;
78416;SDS011;67715;46.170;6.140;2023-03-14T22:54:16;4.90;;;1.00;;
78416;SDS011;67715;46.170;6.140;2023-03-14T22:56:42;2.22;;;0.82;;
78416;SDS011;67715;46.170;6.140;2023-03-14T22:59:07;2.42;;;1.00;;
78416;SDS011;67715;46.170;6.140;2023-03-14T23:01:33;6.88;;;1.80;;
78416;SDS011;67715;46.170;6.140;2023-03-14T23:03:58;3.88;;;0.90;;
78416;SDS011;67715;46.170;6.140;2023-03-14T23:06:24;3.30;;;1.20;;
78416;SDS011;67715;46.170;6.140;2023-03-14T23:08:49;4.17;;;1.40;;
78416;SDS011;67715;46.170;6.140;2023-03-14T23:11:14;6.05;;;1.17;;
78416;SDS011;67715;46.170;6.140;2023-03-14T23:13:40;2.60;;;1.10;;
78416;SDS011;67715;46.170;6.140;2023-03-14T23:16:06;3.60;;;1.00;;
78416;SDS011;67715;46.170;6.140;2023-03-14T23:18:33;2.80;;;0.95;;
78416;SDS011;67715;46.170;6.140;2023-03-14T23:21:09;1.63;;;0.68;;
78416;SDS011;67715;46.170;6.140;2023-03-14T23:23:37;2.97;;;0.63;;
78416;SDS011;67715;46.170;6.140;2023-03-14T23:26:03;2.63;;;0.50;;
78416;SDS011;67715;46.170;6.140;2023-03-14T23:28:29;0.57;;;0.40;;
78416;SDS011;67715;46.170;6.140;2023-03-14T23:30:58;2.33;;;0.60;;
78416;SDS011;67715;46.170;6.140;2023-03-14T23:33:33;1.92;;;0.40;;
78416;SDS011;67715;46.170;6.140;2023-03-14T23:42:43;0.65;;;0.20;;
78416;SDS011;67715;46.170;6.140;2023-03-14T23:45:08;0.30;;;0.25;;
78416;SDS011;67715;46.170;6.140;2023-03-14T23:47:37;0.20;;;0.20;;
78416;SDS011;67715;46.170;6.140;2023-03-14T23:50:03;0.90;;;0.40;;
78416;SDS011;67715;46.170;6.140;2023-03-14T23:52:29;1.10;;;0.20;;
78416;SDS011;67715;46.170;6.140;2023-03-14T23:54:54;0.40;;;0.20;;
78416;SDS011;67715;46.170;6.140;2023-03-14T23:57:19;2.23;;;0.57;;
78416;SDS011;67715;46.170;6.140;2023-03-14T23:59:45;0.70;;;0.50;;
